sensor_id;sensor_type;location;lat;lon;timestamp;P1;durP1;ratioP1;P2;durP2;ratioP2
72379;SDS011;60354;47.798;12.472;2024-03-07T00:01:41;7.47;;;5.55;;
72379;SDS011;60354;47.798;12.472;2024-03-07T00:04:06;6.15;;;5.15;;
72379;SDS011;60354;47.798;12.472;2024-03-07T00:06:31;6.38;;;5.15;;
72379;SDS011;60354;47.798;12.472;2024-03-07T00:08:58;6.35;;;5.30;;
72379;SDS011;60354;47.798;12.472;2024-03-07T00:11:23;6.13;;;5.03;;
72379;SDS011;60354;47.798;12.472;2024-03-07T00:13:49;6.85;;;5.30;;
72379;SDS011;60354;47.798;12.472;2024-03-07T00:16:14;5.90;;;4.95;;
72379;SDS011;60354;47.798;12.472;2024-03-07T00:18:40;6.53;;;5.00;;
72379;SDS011;60354;47.798;12.472;2024-03-07T00:21:05;7.20;;;5.50;;
72379;SDS011;60354;47.798;12.472;2024-03-07T00:23:31;7.75;;;5.28;;
72379;SDS011;60354;47.798;12.472;2024-03-07T00:25:57;5.82;;;5.05;;
72379;SDS011;60354;47.798;12.472;2024-03-07T00:28:22;6.55;;;5.20;;
72379;SDS011;60354;47.798;12.472;2024-03-07T00:30:48;6.47;;;5.03;;
72379;SDS011;60354;47.798;12.472;2024-03-07T00:33:14;7.15;;;5.22;;
72379;SDS011;60354;47.798;12.472;2024-03-07T00:35:39;8.27;;;5.75;;
72379;SDS011;60354;47.798;12.472;2024-03-07T00:38:05;6.60;;;5.57;;
72379;SDS011;60354;47.798;12.472;2024-03-07T00:40:30;9.23;;;5.65;;
72379;SDS011;60354;47.798;12.472;2024-03-07T00:42:57;9.10;;;6.38;;
72379;SDS011;60354;47.798;12.472;2024-03-07T00:45:24;7.72;;;5.90;;
72379;SDS011;60354;47.798;12.472;2024-03-07T00:47:49;7.72;;;5.68;;
72379;SDS011;60354;47.798;12.472;2024-03-07T00:50:15;7.70;;;5.65;;
72379;SDS011;60354;47.798;12.472;2024-03-07T00:52:41;9.27;;;6.75;;
72379;SDS011;60354;47.798;12.472;2024-03-07T00:55:06;9.00;;;6.38;;
72379;SDS011;60354;47.798;12.472;2024-03-07T00:57:36;9.25;;;6.03;;
72379;SDS011;60354;47.798;12.472;2024-03-07T01:00:02;9.88;;;6.78;;
72379;SDS011;60354;47.798;12.472;2024-03-07T01:02:28;30.85;;;18.33;;
72379;SDS011;60354;47.798;12.472;2024-03-07T01:04:55;23.63;;;14.60;;
72379;SDS011;60354;47.798;12.472;2024-03-07T01:07:20;14.55;;;9.63;;
72379;SDS011;60354;47.798;12.472;2024-03-07T01:09:46;12.50;;;7.70;;
72379;SDS011;60354;47.798;12.472;2024-03-07T01:12:13;13.60;;;7.13;;
72379;SDS011;60354;47.798;12.472;2024-03-07T01:14:38;10.35;;;6.78;;
72379;SDS011;60354;47.798;12.472;2024-03-07T01:17:04;9.90;;;6.82;;
72379;SDS011;60354;47.798;12.472;2024-03-07T01:19:32;8.45;;;5.85;;
72379;SDS011;60354;47.798;12.472;2024-03-07T01:21:57;11.07;;;6.72;;
72379;SDS011;60354;47.798;12.472;2024-03-07T01:24:23;9.82;;;6.85;;
72379;SDS011;60354;47.798;12.472;2024-03-07T01:26:48;8.40;;;5.93;;
72379;SDS011;60354;47.798;12.472;2024-03-07T01:29:13;9.40;;;5.90;;
72379;SDS011;60354;47.798;12.472;2024-03-07T01:31:39;7.03;;;5.03;;
72379;SDS011;60354;47.798;12.472;2024-03-07T01:34:04;6.60;;;4.97;;
72379;SDS011;60354;47.798;12.472;2024-03-07T01:36:30;7.13;;;5.40;;
72379;SDS011;60354;47.798;12.472;2024-03-07T01:38:55;7.00;;;5.38;;
72379;SDS011;60354;47.798;12.472;2024-03-07T01:41:21;7.60;;;5.00;;
72379;SDS011;60354;47.798;12.472;2024-03-07T01:43:46;7.07;;;5.60;;
72379;SDS011;60354;47.798;12.472;2024-03-07T01:46:12;7.57;;;5.55;;
72379;SDS011;60354;47.798;12.472;2024-03-07T01:48:37;6.82;;;5.40;;
72379;SDS011;60354;47.798;12.472;2024-03-07T01:51:05;7.60;;;5.70;;
72379;SDS011;60354;47.798;12.472;2024-03-07T01:53:31;6.93;;;5.60;;
72379;SDS011;60354;47.798;12.472;2024-03-07T01:55:58;6.90;;;5.57;;
72379;SDS011;60354;47.798;12.472;2024-03-07T01:58:24;8.23;;;5.78;;
72379;SDS011;60354;47.798;12.472;2024-03-07T02:00:50;7.07;;;5.93;;
72379;SDS011;60354;47.798;12.472;2024-03-07T02:03:16;7.22;;;5.75;;
72379;SDS011;60354;47.798;12.472;2024-03-07T02:05:42;7.32;;;5.70;;
72379;SDS011;60354;47.798;12.472;2024-03-07T02:08:08;7.35;;;5.35;;
72379;SDS011;60354;47.798;12.472;2024-03-07T02:10:34;6.88;;;5.65;;
72379;SDS011;60354;47.798;12.472;2024-03-07T02:12:59;8.05;;;6.05;;
72379;SDS011;60354;47.798;12.472;2024-03-07T02:15:26;8.30;;;5.88;;
72379;SDS011;60354;47.798;12.472;2024-03-07T02:17:52;7.38;;;5.90;;
72379;SDS011;60354;47.798;12.472;2024-03-07T02:20:17;7.10;;;5.40;;
72379;SDS011;60354;47.798;12.472;2024-03-07T02:22:43;7.75;;;5.47;;
72379;SDS011;60354;47.798;12.472;2024-03-07T02:25:08;7.32;;;5.53;;
72379;SDS011;60354;47.798;12.472;2024-03-07T02:27:37;6.88;;;5.43;;
72379;SDS011;60354;47.798;12.472;2024-03-07T02:30:03;7.15;;;5.57;;
72379;SDS011;60354;47.798;12.472;2024-03-07T02:32:33;8.15;;;5.60;;
72379;SDS011;60354;47.798;12.472;2024-03-07T02:35:02;7.50;;;5.45;;
72379;SDS011;60354;47.798;12.472;2024-03-07T02:37:28;7.43;;;5.45;;
72379;SDS011;60354;47.798;12.472;2024-03-07T02:39:54;6.47;;;5.28;;
72379;SDS011;60354;47.798;12.472;2024-03-07T02:42:20;6.85;;;5.75;;
72379;SDS011;60354;47.798;12.472;2024-03-07T02:44:45;6.80;;;5.00;;
72379;SDS011;60354;47.798;12.472;2024-03-07T02:47:11;5.78;;;4.78;;
72379;SDS011;60354;47.798;12.472;2024-03-07T02:49:36;6.05;;;4.95;;
72379;SDS011;60354;47.798;12.472;2024-03-07T02:52:02;6.43;;;5.10;;
72379;SDS011;60354;47.798;12.472;2024-03-07T02:54:32;7.25;;;5.20;;
72379;SDS011;60354;47.798;12.472;2024-03-07T02:56:58;7.20;;;5.20;;
72379;SDS011;60354;47.798;12.472;2024-03-07T02:59:23;6.90;;;5.22;;
72379;SDS011;60354;47.798;12.472;2024-03-07T03:01:49;7.15;;;5.50;;
72379;SDS011;60354;47.798;12.472;2024-03-07T03:04:15;6.55;;;5.10;;
72379;SDS011;60354;47.798;12.472;2024-03-07T03:06:41;7.13;;;5.35;;
72379;SDS011;60354;47.798;12.472;2024-03-07T03:09:06;7.03;;;5.50;;
72379;SDS011;60354;47.798;12.472;2024-03-07T03:11:35;7.80;;;5.55;;
72379;SDS011;60354;47.798;12.472;2024-03-07T03:14:01;8.15;;;5.65;;
72379;SDS011;60354;47.798;12.472;2024-03-07T03:16:26;7.90;;;5.80;;
72379;SDS011;60354;47.798;12.472;2024-03-07T03:18:52;7.95;;;5.90;;
72379;SDS011;60354;47.798;12.472;2024-03-07T03:21:17;6.82;;;5.45;;
72379;SDS011;60354;47.798;12.472;2024-03-07T03:23:43;7.47;;;5.40;;
72379;SDS011;60354;47.798;12.472;2024-03-07T03:26:08;7.82;;;5.80;;
72379;SDS011;60354;47.798;12.472;2024-03-07T03:28:34;7.93;;;5.82;;
72379;SDS011;60354;47.798;12.472;2024-03-07T03:31:00;8.65;;;5.85;;
72379;SDS011;60354;47.798;12.472;2024-03-07T03:33:25;8.52;;;6.00;;
72379;SDS011;60354;47.798;12.472;2024-03-07T03:35:50;8.20;;;5.38;;
72379;SDS011;60354;47.798;12.472;2024-03-07T03:38:16;6.95;;;5.43;;
72379;SDS011;60354;47.798;12.472;2024-03-07T03:40:43;7.30;;;5.78;;
72379;SDS011;60354;47.798;12.472;2024-03-07T03:43:09;7.93;;;5.95;;
72379;SDS011;60354;47.798;12.472;2024-03-07T03:45:35;7.38;;;5.68;;
72379;SDS011;60354;47.798;12.472;2024-03-07T03:48:00;8.95;;;5.68;;
72379;SDS011;60354;47.798;12.472;2024-03-07T03:50:26;8.85;;;5.68;;
72379;SDS011;60354;47.798;12.472;2024-03-07T03:52:52;8.57;;;6.00;;
72379;SDS011;60354;47.798;12.472;2024-03-07T03:55:17;10.15;;;6.72;;
72379;SDS011;60354;47.798;12.472;2024-03-07T03:57:43;8.18;;;5.82;;
72379;SDS011;60354;47.798;12.472;2024-03-07T04:00:10;8.77;;;6.32;;
72379;SDS011;60354;47.798;12.472;2024-03-07T04:02:42;8.55;;;6.30;;
72379;SDS011;60354;47.798;12.472;2024-03-07T04:05:15;9.02;;;6.13;;
72379;SDS011;60354;47.798;12.472;2024-03-07T04:07:42;8.38;;;6.20;;
72379;SDS011;60354;47.798;12.472;2024-03-07T04:10:08;7.97;;;5.78;;
72379;SDS011;60354;47.798;12.472;2024-03-07T04:12:35;8.15;;;5.93;;
72379;SDS011;60354;47.798;12.472;2024-03-07T04:15:03;8.18;;;6.05;;
72379;SDS011;60354;47.798;12.472;2024-03-07T04:17:30;8.73;;;6.10;;
72379;SDS011;60354;47.798;12.472;2024-03-07T04:19:56;8.82;;;6.22;;
72379;SDS011;60354;47.798;12.472;2024-03-07T04:22:23;9.35;;;6.53;;
72379;SDS011;60354;47.798;12.472;2024-03-07T04:24:49;11.25;;;6.55;;
72379;SDS011;60354;47.798;12.472;2024-03-07T04:27:19;10.65;;;6.97;;
72379;SDS011;60354;47.798;12.472;2024-03-07T04:29:45;10.13;;;6.80;;
72379;SDS011;60354;47.798;12.472;2024-03-07T04:32:13;9.70;;;6.75;;
72379;SDS011;60354;47.798;12.472;2024-03-07T04:34:39;11.52;;;7.30;;
72379;SDS011;60354;47.798;12.472;2024-03-07T04:37:04;11.40;;;7.15;;
72379;SDS011;60354;47.798;12.472;2024-03-07T04:39:30;10.70;;;7.47;;
72379;SDS011;60354;47.798;12.472;2024-03-07T04:41:58;10.07;;;6.70;;
72379;SDS011;60354;47.798;12.472;2024-03-07T04:44:25;9.50;;;6.78;;
72379;SDS011;60354;47.798;12.472;2024-03-07T04:46:51;8.65;;;6.10;;
72379;SDS011;60354;47.798;12.472;2024-03-07T04:49:23;9.85;;;7.32;;
72379;SDS011;60354;47.798;12.472;2024-03-07T04:51:50;8.57;;;6.00;;
72379;SDS011;60354;47.798;12.472;2024-03-07T04:54:17;9.05;;;6.50;;
72379;SDS011;60354;47.798;12.472;2024-03-07T04:56:43;8.48;;;5.88;;
72379;SDS011;60354;47.798;12.472;2024-03-07T04:59:12;8.70;;;6.45;;
72379;SDS011;60354;47.798;12.472;2024-03-07T05:01:39;9.45;;;6.43;;
72379;SDS011;60354;47.798;12.472;2024-03-07T05:04:08;9.60;;;6.38;;
72379;SDS011;60354;47.798;12.472;2024-03-07T05:06:34;9.15;;;6.03;;
72379;SDS011;60354;47.798;12.472;2024-03-07T05:09:00;9.40;;;6.88;;
72379;SDS011;60354;47.798;12.472;2024-03-07T05:11:27;9.65;;;6.45;;
72379;SDS011;60354;47.798;12.472;2024-03-07T05:13:53;9.15;;;6.55;;
72379;SDS011;60354;47.798;12.472;2024-03-07T05:16:19;9.40;;;6.75;;
72379;SDS011;60354;47.798;12.472;2024-03-07T05:18:45;10.13;;;6.45;;
72379;SDS011;60354;47.798;12.472;2024-03-07T05:21:10;9.07;;;6.55;;
72379;SDS011;60354;47.798;12.472;2024-03-07T05:23:55;11.23;;;6.47;;
72379;SDS011;60354;47.798;12.472;2024-03-07T05:26:20;10.23;;;6.13;;
72379;SDS011;60354;47.798;12.472;2024-03-07T05:28:45;9.77;;;6.28;;
72379;SDS011;60354;47.798;12.472;2024-03-07T05:31:11;10.93;;;6.80;;
72379;SDS011;60354;47.798;12.472;2024-03-07T05:33:38;8.80;;;6.25;;
72379;SDS011;60354;47.798;12.472;2024-03-07T05:36:06;9.40;;;6.30;;
72379;SDS011;60354;47.798;12.472;2024-03-07T05:38:41;9.77;;;6.28;;
72379;SDS011;60354;47.798;12.472;2024-03-07T05:41:11;17.60;;;9.23;;
72379;SDS011;60354;47.798;12.472;2024-03-07T05:43:40;13.60;;;7.45;;
72379;SDS011;60354;47.798;12.472;2024-03-07T05:46:06;9.63;;;6.55;;
72379;SDS011;60354;47.798;12.472;2024-03-07T05:48:36;10.55;;;6.97;;
72379;SDS011;60354;47.798;12.472;2024-03-07T05:51:02;11.68;;;6.97;;
72379;SDS011;60354;47.798;12.472;2024-03-07T05:53:27;12.07;;;7.80;;
72379;SDS011;60354;47.798;12.472;2024-03-07T05:55:53;13.15;;;7.70;;
72379;SDS011;60354;47.798;12.472;2024-03-07T05:58:19;11.43;;;7.03;;
72379;SDS011;60354;47.798;12.472;2024-03-07T06:00:45;11.88;;;7.53;;
72379;SDS011;60354;47.798;12.472;2024-03-07T06:03:17;12.07;;;7.72;;
72379;SDS011;60354;47.798;12.472;2024-03-07T06:05:48;12.20;;;7.80;;
72379;SDS011;60354;47.798;12.472;2024-03-07T06:08:17;13.52;;;7.57;;
72379;SDS011;60354;47.798;12.472;2024-03-07T06:10:43;14.13;;;8.55;;
72379;SDS011;60354;47.798;12.472;2024-03-07T06:13:13;10.82;;;6.95;;
72379;SDS011;60354;47.798;12.472;2024-03-07T06:15:43;12.50;;;7.38;;
72379;SDS011;60354;47.798;12.472;2024-03-07T06:18:09;11.15;;;7.53;;
72379;SDS011;60354;47.798;12.472;2024-03-07T06:20:42;13.73;;;7.68;;
72379;SDS011;60354;47.798;12.472;2024-03-07T06:23:09;13.27;;;8.35;;
72379;SDS011;60354;47.798;12.472;2024-03-07T06:25:36;13.38;;;7.82;;
72379;SDS011;60354;47.798;12.472;2024-03-07T06:28:11;14.45;;;7.97;;
72379;SDS011;60354;47.798;12.472;2024-03-07T06:30:40;13.45;;;7.57;;
72379;SDS011;60354;47.798;12.472;2024-03-07T06:33:08;13.48;;;7.57;;
72379;SDS011;60354;47.798;12.472;2024-03-07T06:35:33;10.50;;;7.10;;
72379;SDS011;60354;47.798;12.472;2024-03-07T06:38:02;14.18;;;8.35;;
72379;SDS011;60354;47.798;12.472;2024-03-07T06:40:29;13.80;;;8.13;;
72379;SDS011;60354;47.798;12.472;2024-03-07T06:42:54;14.18;;;8.30;;
72379;SDS011;60354;47.798;12.472;2024-03-07T06:45:20;14.80;;;8.57;;
72379;SDS011;60354;47.798;12.472;2024-03-07T06:47:46;12.90;;;8.00;;
72379;SDS011;60354;47.798;12.472;2024-03-07T06:50:12;13.45;;;7.70;;
72379;SDS011;60354;47.798;12.472;2024-03-07T06:52:47;14.77;;;8.30;;
72379;SDS011;60354;47.798;12.472;2024-03-07T06:55:16;13.80;;;7.95;;
72379;SDS011;60354;47.798;12.472;2024-03-07T06:57:43;11.32;;;7.30;;
72379;SDS011;60354;47.798;12.472;2024-03-07T07:00:13;13.35;;;7.53;;
72379;SDS011;60354;47.798;12.472;2024-03-07T07:02:44;11.73;;;7.13;;
72379;SDS011;60354;47.798;12.472;2024-03-07T07:05:10;13.73;;;8.13;;
72379;SDS011;60354;47.798;12.472;2024-03-07T07:07:40;15.18;;;8.60;;
72379;SDS011;60354;47.798;12.472;2024-03-07T07:10:07;13.57;;;8.18;;
72379;SDS011;60354;47.798;12.472;2024-03-07T07:12:36;15.18;;;8.60;;
72379;SDS011;60354;47.798;12.472;2024-03-07T07:15:02;13.10;;;8.10;;
72379;SDS011;60354;47.798;12.472;2024-03-07T07:17:29;11.60;;;6.88;;
72379;SDS011;60354;47.798;12.472;2024-03-07T07:19:56;11.32;;;7.00;;
72379;SDS011;60354;47.798;12.472;2024-03-07T07:22:22;11.38;;;6.25;;
72379;SDS011;60354;47.798;12.472;2024-03-07T07:24:48;9.48;;;6.18;;
72379;SDS011;60354;47.798;12.472;2024-03-07T07:27:15;10.77;;;6.85;;
72379;SDS011;60354;47.798;12.472;2024-03-07T07:29:40;12.48;;;6.50;;
72379;SDS011;60354;47.798;12.472;2024-03-07T07:32:06;11.85;;;6.93;;
72379;SDS011;60354;47.798;12.472;2024-03-07T07:34:32;11.90;;;6.45;;
72379;SDS011;60354;47.798;12.472;2024-03-07T07:36:58;9.43;;;5.90;;
72379;SDS011;60354;47.798;12.472;2024-03-07T07:39:24;9.30;;;5.70;;
72379;SDS011;60354;47.798;12.472;2024-03-07T07:41:49;9.40;;;4.50;;
72379;SDS011;60354;47.798;12.472;2024-03-07T07:44:15;8.50;;;5.00;;
72379;SDS011;60354;47.798;12.472;2024-03-07T07:46:40;9.32;;;4.80;;
72379;SDS011;60354;47.798;12.472;2024-03-07T07:49:06;7.43;;;4.63;;
72379;SDS011;60354;47.798;12.472;2024-03-07T07:51:31;7.30;;;4.47;;
72379;SDS011;60354;47.798;12.472;2024-03-07T07:53:57;10.38;;;5.40;;
72379;SDS011;60354;47.798;12.472;2024-03-07T07:56:23;9.65;;;5.75;;
72379;SDS011;60354;47.798;12.472;2024-03-07T07:58:49;10.15;;;6.05;;
72379;SDS011;60354;47.798;12.472;2024-03-07T08:01:16;8.57;;;5.35;;
72379;SDS011;60354;47.798;12.472;2024-03-07T08:03:42;8.48;;;4.63;;
72379;SDS011;60354;47.798;12.472;2024-03-07T08:06:09;7.53;;;4.78;;
72379;SDS011;60354;47.798;12.472;2024-03-07T08:08:35;7.68;;;4.55;;
72379;SDS011;60354;47.798;12.472;2024-03-07T08:11:01;8.57;;;4.75;;
72379;SDS011;60354;47.798;12.472;2024-03-07T08:13:27;6.57;;;4.22;;
72379;SDS011;60354;47.798;12.472;2024-03-07T08:15:52;7.43;;;3.83;;
72379;SDS011;60354;47.798;12.472;2024-03-07T08:18:21;6.13;;;3.92;;
72379;SDS011;60354;47.798;12.472;2024-03-07T08:20:46;5.40;;;3.40;;
72379;SDS011;60354;47.798;12.472;2024-03-07T08:23:12;5.60;;;3.40;;
72379;SDS011;60354;47.798;12.472;2024-03-07T08:25:38;5.32;;;3.55;;
72379;SDS011;60354;47.798;12.472;2024-03-07T08:28:07;5.43;;;3.70;;
72379;SDS011;60354;47.798;12.472;2024-03-07T08:30:33;4.57;;;3.17;;
72379;SDS011;60354;47.798;12.472;2024-03-07T08:33:00;5.05;;;3.30;;
72379;SDS011;60354;47.798;12.472;2024-03-07T08:35:28;5.53;;;3.33;;
72379;SDS011;60354;47.798;12.472;2024-03-07T08:37:56;6.28;;;3.70;;
72379;SDS011;60354;47.798;12.472;2024-03-07T08:40:26;5.85;;;3.63;;
72379;SDS011;60354;47.798;12.472;2024-03-07T08:45:22;6.68;;;3.67;;
72379;SDS011;60354;47.798;12.472;2024-03-07T08:47:48;6.95;;;4.15;;
72379;SDS011;60354;47.798;12.472;2024-03-07T08:50:15;5.57;;;3.78;;
72379;SDS011;60354;47.798;12.472;2024-03-07T08:52:43;8.35;;;4.70;;
72379;SDS011;60354;47.798;12.472;2024-03-07T08:55:12;7.60;;;4.88;;
72379;SDS011;60354;47.798;12.472;2024-03-07T08:57:42;7.65;;;4.60;;
72379;SDS011;60354;47.798;12.472;2024-03-07T09:00:11;7.20;;;4.40;;
72379;SDS011;60354;47.798;12.472;2024-03-07T09:02:44;7.35;;;4.75;;
72379;SDS011;60354;47.798;12.472;2024-03-07T09:05:09;7.10;;;4.18;;
72379;SDS011;60354;47.798;12.472;2024-03-07T09:07:35;6.03;;;3.78;;
72379;SDS011;60354;47.798;12.472;2024-03-07T09:10:04;6.82;;;4.40;;
72379;SDS011;60354;47.798;12.472;2024-03-07T09:12:29;6.18;;;4.20;;
72379;SDS011;60354;47.798;12.472;2024-03-07T09:14:55;6.40;;;4.43;;
72379;SDS011;60354;47.798;12.472;2024-03-07T09:17:23;7.95;;;5.00;;
72379;SDS011;60354;47.798;12.472;2024-03-07T09:19:49;11.18;;;4.78;;
72379;SDS011;60354;47.798;12.472;2024-03-07T09:22:15;8.07;;;5.07;;
72379;SDS011;60354;47.798;12.472;2024-03-07T09:24:40;7.85;;;5.00;;
72379;SDS011;60354;47.798;12.472;2024-03-07T09:27:06;9.75;;;5.78;;
72379;SDS011;60354;47.798;12.472;2024-03-07T09:29:31;9.32;;;5.70;;
72379;SDS011;60354;47.798;12.472;2024-03-07T09:31:57;8.52;;;5.13;;
72379;SDS011;60354;47.798;12.472;2024-03-07T09:34:23;7.75;;;5.10;;
72379;SDS011;60354;47.798;12.472;2024-03-07T09:36:50;7.90;;;4.95;;
72379;SDS011;60354;47.798;12.472;2024-03-07T09:39:16;10.48;;;6.13;;
72379;SDS011;60354;47.798;12.472;2024-03-07T09:41:42;9.50;;;5.70;;
72379;SDS011;60354;47.798;12.472;2024-03-07T09:44:08;7.75;;;5.07;;
72379;SDS011;60354;47.798;12.472;2024-03-07T09:46:36;12.88;;;5.82;;
72379;SDS011;60354;47.798;12.472;2024-03-07T09:49:03;16.38;;;8.57;;
72379;SDS011;60354;47.798;12.472;2024-03-07T09:51:31;13.32;;;6.80;;
72379;SDS011;60354;47.798;12.472;2024-03-07T09:53:58;11.00;;;6.25;;
72379;SDS011;60354;47.798;12.472;2024-03-07T09:56:24;10.50;;;6.95;;
72379;SDS011;60354;47.798;12.472;2024-03-07T09:58:53;10.77;;;6.55;;
72379;SDS011;60354;47.798;12.472;2024-03-07T10:01:24;9.90;;;6.25;;
72379;SDS011;60354;47.798;12.472;2024-03-07T10:03:52;11.55;;;6.45;;
72379;SDS011;60354;47.798;12.472;2024-03-07T10:06:39;11.07;;;6.50;;
72379;SDS011;60354;47.798;12.472;2024-03-07T10:09:06;12.20;;;6.68;;
72379;SDS011;60354;47.798;12.472;2024-03-07T10:11:35;12.85;;;6.93;;
72379;SDS011;60354;47.798;12.472;2024-03-07T10:14:00;12.27;;;6.78;;
72379;SDS011;60354;47.798;12.472;2024-03-07T10:16:28;11.48;;;6.95;;
72379;SDS011;60354;47.798;12.472;2024-03-07T10:18:54;11.35;;;6.20;;
72379;SDS011;60354;47.798;12.472;2024-03-07T10:21:19;10.88;;;6.65;;
72379;SDS011;60354;47.798;12.472;2024-03-07T10:23:46;12.23;;;7.10;;
72379;SDS011;60354;47.798;12.472;2024-03-07T10:26:12;12.60;;;7.10;;
72379;SDS011;60354;47.798;12.472;2024-03-07T10:28:38;13.57;;;7.70;;
72379;SDS011;60354;47.798;12.472;2024-03-07T10:31:04;13.18;;;7.60;;
72379;SDS011;60354;47.798;12.472;2024-03-07T10:33:36;12.63;;;7.25;;
72379;SDS011;60354;47.798;12.472;2024-03-07T10:36:02;14.65;;;7.65;;
72379;SDS011;60354;47.798;12.472;2024-03-07T10:38:28;14.35;;;8.05;;
72379;SDS011;60354;47.798;12.472;2024-03-07T10:40:54;12.90;;;7.60;;
72379;SDS011;60354;47.798;12.472;2024-03-07T10:43:21;13.77;;;7.95;;
72379;SDS011;60354;47.798;12.472;2024-03-07T10:45:47;15.32;;;8.02;;
72379;SDS011;60354;47.798;12.472;2024-03-07T10:48:17;15.55;;;8.02;;
72379;SDS011;60354;47.798;12.472;2024-03-07T10:51:06;15.40;;;8.13;;
72379;SDS011;60354;47.798;12.472;2024-03-07T10:53:57;13.73;;;7.78;;
72379;SDS011;60354;47.798;12.472;2024-03-07T10:56:38;11.90;;;7.25;;
72379;SDS011;60354;47.798;12.472;2024-03-07T10:59:25;15.52;;;8.07;;
72379;SDS011;60354;47.798;12.472;2024-03-07T11:02:14;15.55;;;7.85;;
72379;SDS011;60354;47.798;12.472;2024-03-07T11:04:47;16.52;;;8.38;;
72379;SDS011;60354;47.798;12.472;2024-03-07T11:07:19;16.33;;;8.73;;
72379;SDS011;60354;47.798;12.472;2024-03-07T11:09:47;15.57;;;9.15;;
72379;SDS011;60354;47.798;12.472;2024-03-07T11:12:14;15.43;;;8.68;;
72379;SDS011;60354;47.798;12.472;2024-03-07T11:14:41;20.23;;;10.10;;
72379;SDS011;60354;47.798;12.472;2024-03-07T11:17:08;17.52;;;9.95;;
72379;SDS011;60354;47.798;12.472;2024-03-07T11:19:38;16.00;;;9.35;;
72379;SDS011;60354;47.798;12.472;2024-03-07T11:22:04;20.65;;;11.52;;
72379;SDS011;60354;47.798;12.472;2024-03-07T11:24:40;19.85;;;10.75;;
72379;SDS011;60354;47.798;12.472;2024-03-07T11:27:08;16.35;;;9.90;;
72379;SDS011;60354;47.798;12.472;2024-03-07T11:32:08;18.13;;;9.73;;
72379;SDS011;60354;47.798;12.472;2024-03-07T11:34:41;17.10;;;9.10;;
72379;SDS011;60354;47.798;12.472;2024-03-07T11:37:07;15.90;;;9.60;;
72379;SDS011;60354;47.798;12.472;2024-03-07T11:39:46;17.80;;;9.40;;
72379;SDS011;60354;47.798;12.472;2024-03-07T11:44:54;15.57;;;9.57;;
72379;SDS011;60354;47.798;12.472;2024-03-07T11:47:26;16.10;;;9.23;;
72379;SDS011;60354;47.798;12.472;2024-03-07T11:50:00;15.88;;;8.77;;
72379;SDS011;60354;47.798;12.472;2024-03-07T11:52:27;19.40;;;10.32;;
72379;SDS011;60354;47.798;12.472;2024-03-07T11:54:53;20.13;;;10.30;;
72379;SDS011;60354;47.798;12.472;2024-03-07T11:57:22;20.35;;;11.20;;
72379;SDS011;60354;47.798;12.472;2024-03-07T11:59:57;21.35;;;11.80;;
72379;SDS011;60354;47.798;12.472;2024-03-07T12:02:26;19.65;;;11.75;;
72379;SDS011;60354;47.798;12.472;2024-03-07T12:04:52;22.40;;;12.82;;
72379;SDS011;60354;47.798;12.472;2024-03-07T12:07:18;21.48;;;12.38;;
72379;SDS011;60354;47.798;12.472;2024-03-07T12:09:48;23.13;;;12.35;;
72379;SDS011;60354;47.798;12.472;2024-03-07T12:12:19;25.30;;;14.25;;
72379;SDS011;60354;47.798;12.472;2024-03-07T12:14:46;26.00;;;15.15;;
72379;SDS011;60354;47.798;12.472;2024-03-07T12:17:13;26.20;;;14.95;;
72379;SDS011;60354;47.798;12.472;2024-03-07T12:19:41;25.58;;;14.70;;
72379;SDS011;60354;47.798;12.472;2024-03-07T12:22:13;27.30;;;15.23;;
72379;SDS011;60354;47.798;12.472;2024-03-07T12:24:40;30.92;;;16.30;;
72379;SDS011;60354;47.798;12.472;2024-03-07T12:27:07;28.33;;;15.93;;
72379;SDS011;60354;47.798;12.472;2024-03-07T12:29:35;30.58;;;16.55;;
72379;SDS011;60354;47.798;12.472;2024-03-07T12:32:04;30.95;;;17.45;;
72379;SDS011;60354;47.798;12.472;2024-03-07T12:34:44;33.17;;;18.00;;
72379;SDS011;60354;47.798;12.472;2024-03-07T12:37:11;30.25;;;17.33;;
72379;SDS011;60354;47.798;12.472;2024-03-07T12:39:44;34.72;;;18.25;;
72379;SDS011;60354;47.798;12.472;2024-03-07T12:42:14;32.80;;;17.92;;
72379;SDS011;60354;47.798;12.472;2024-03-07T12:44:45;30.40;;;18.10;;
72379;SDS011;60354;47.798;12.472;2024-03-07T12:47:14;35.38;;;18.75;;
72379;SDS011;60354;47.798;12.472;2024-03-07T12:49:41;31.73;;;18.02;;
72379;SDS011;60354;47.798;12.472;2024-03-07T12:52:07;33.60;;;18.30;;
72379;SDS011;60354;47.798;12.472;2024-03-07T12:54:36;32.95;;;18.65;;
72379;SDS011;60354;47.798;12.472;2024-03-07T12:57:09;29.77;;;17.33;;
72379;SDS011;60354;47.798;12.472;2024-03-07T12:59:36;32.35;;;17.98;;
72379;SDS011;60354;47.798;12.472;2024-03-07T13:02:05;32.53;;;17.40;;
72379;SDS011;60354;47.798;12.472;2024-03-07T13:04:32;31.08;;;18.42;;
72379;SDS011;60354;47.798;12.472;2024-03-07T13:06:58;32.60;;;17.73;;
72379;SDS011;60354;47.798;12.472;2024-03-07T13:09:29;34.60;;;18.10;;
72379;SDS011;60354;47.798;12.472;2024-03-07T13:11:56;30.25;;;17.23;;
72379;SDS011;60354;47.798;12.472;2024-03-07T13:14:22;32.80;;;17.88;;
72379;SDS011;60354;47.798;12.472;2024-03-07T13:16:47;31.23;;;17.58;;
72379;SDS011;60354;47.798;12.472;2024-03-07T13:19:13;32.63;;;18.17;;
72379;SDS011;60354;47.798;12.472;2024-03-07T13:21:40;37.45;;;20.00;;
72379;SDS011;60354;47.798;12.472;2024-03-07T13:24:05;39.22;;;21.77;;
72379;SDS011;60354;47.798;12.472;2024-03-07T13:26:31;37.85;;;20.80;;
72379;SDS011;60354;47.798;12.472;2024-03-07T13:28:57;36.83;;;21.13;;
72379;SDS011;60354;47.798;12.472;2024-03-07T13:31:26;41.03;;;22.17;;
72379;SDS011;60354;47.798;12.472;2024-03-07T13:33:53;35.50;;;21.45;;
72379;SDS011;60354;47.798;12.472;2024-03-07T13:36:20;43.42;;;22.88;;
72379;SDS011;60354;47.798;12.472;2024-03-07T13:38:49;36.03;;;21.30;;
72379;SDS011;60354;47.798;12.472;2024-03-07T13:41:18;39.47;;;20.67;;
72379;SDS011;60354;47.798;12.472;2024-03-07T13:43:44;36.83;;;21.40;;
72379;SDS011;60354;47.798;12.472;2024-03-07T13:46:10;38.97;;;21.45;;
72379;SDS011;60354;47.798;12.472;2024-03-07T13:48:37;40.33;;;20.80;;
72379;SDS011;60354;47.798;12.472;2024-03-07T13:51:03;41.55;;;22.42;;
72379;SDS011;60354;47.798;12.472;2024-03-07T13:53:33;37.83;;;20.83;;
72379;SDS011;60354;47.798;12.472;2024-03-07T14:01:37;39.72;;;20.25;;
72379;SDS011;60354;47.798;12.472;2024-03-07T14:20:36;29.50;;;16.45;;
72379;SDS011;60354;47.798;12.472;2024-03-07T14:23:41;26.85;;;16.48;;
72379;SDS011;60354;47.798;12.472;2024-03-07T14:32:03;29.55;;;15.95;;
72379;SDS011;60354;47.798;12.472;2024-03-07T14:37:37;20.52;;;11.55;;
72379;SDS011;60354;47.798;12.472;2024-03-07T14:40:10;21.30;;;12.48;;
72379;SDS011;60354;47.798;12.472;2024-03-07T14:42:45;20.67;;;11.45;;
72379;SDS011;60354;47.798;12.472;2024-03-07T14:45:13;18.40;;;11.50;;
72379;SDS011;60354;47.798;12.472;2024-03-07T14:47:44;16.92;;;10.73;;
72379;SDS011;60354;47.798;12.472;2024-03-07T14:50:12;21.95;;;11.55;;
72379;SDS011;60354;47.798;12.472;2024-03-07T14:52:38;19.15;;;10.30;;
72379;SDS011;60354;47.798;12.472;2024-03-07T14:55:08;17.55;;;10.10;;
72379;SDS011;60354;47.798;12.472;2024-03-07T14:57:38;17.38;;;10.27;;
72379;SDS011;60354;47.798;12.472;2024-03-07T15:00:04;16.52;;;9.57;;
72379;SDS011;60354;47.798;12.472;2024-03-07T15:02:39;20.77;;;10.30;;
72379;SDS011;60354;47.798;12.472;2024-03-07T15:05:04;16.50;;;10.07;;
72379;SDS011;60354;47.798;12.472;2024-03-07T15:07:30;16.23;;;10.48;;